Time;durP1;ratioP1;P1;durP2;ratioP2;P2;SDS_P1;SDS_P2;PMS_P1;PMS_P2;Temp;Humidity;BMP_temperature;BMP_pressure;BME280_temperature;BME280_humidity;BME280_pressure;Samples;Min_cycle;Max_cycle;Signal;HPM_P1;HPM_P2
2021/07/23 00:00:28;;;;;;;11.10;7.50;;;22.70;99.90;;;;;;5034542;28;20453;-80
2021/07/23 00:02:56;;;;;;;9.00;6.70;;;22.70;99.90;;;;;;5030418;28;20508;-80
2021/07/23 00:05:24;;;;;;;8.00;6.47;;;22.70;99.90;;;;;;5017262;28;20452;-81
2021/07/23 00:07:52;;;;;;;8.73;7.33;;;22.70;99.90;;;;;;5033773;28;20472;-81
2021/07/23 00:10:22;;;;;;;8.43;7.10;;;22.60;99.90;;;;;;5019839;28;20478;-81
2021/07/23 00:12:50;;;;;;;7.57;6.63;;;22.60;99.90;;;;;;5032299;28;20496;-80
2021/07/23 00:15:18;;;;;;;8.27;6.80;;;22.60;99.90;;;;;;5029591;28;20998;-82
2021/07/23 00:17:46;;;;;;;10.33;7.00;;;22.60;99.90;;;;;;5030776;28;20454;-80
2021/07/23 00:20:14;;;;;;;7.80;6.50;;;22.60;99.90;;;;;;5029428;28;20663;-81
2021/07/23 00:22:42;;;;;;;8.50;7.07;;;22.60;99.90;;;;;;5027167;28;20474;-80
2021/07/23 00:25:11;;;;;;;8.50;7.33;;;22.50;99.90;;;;;;5021141;28;20458;-80
2021/07/23 00:27:41;;;;;;;10.30;7.30;;;22.50;99.90;;;;;;5029515;28;20927;-80
2021/07/23 00:30:10;;;;;;;7.93;6.80;;;22.50;99.90;;;;;;5031501;28;20504;-80
2021/07/23 00:32:40;;;;;;;10.50;7.10;;;22.40;99.90;;;;;;5029650;28;20484;-79
2021/07/23 00:35:09;;;;;;;9.23;6.90;;;22.40;99.90;;;;;;5033256;28;20509;-81
2021/07/23 00:37:37;;;;;;;8.70;7.13;;;22.40;99.90;;;;;;5033608;28;20973;-79
2021/07/23 00:40:07;;;;;;;8.30;7.00;;;22.40;99.90;;;;;;5016036;28;20482;-81
2021/07/23 00:42:36;;;;;;;11.30;7.00;;;22.40;99.90;;;;;;5029984;28;20476;-81
2021/07/23 00:45:07;;;;;;;7.30;6.50;;;22.40;99.90;;;;;;5016302;28;20959;-83
2021/07/23 00:47:36;;;;;;;10.40;7.30;;;22.30;99.90;;;;;;5030531;28;20460;-81
2021/07/23 00:50:06;;;;;;;9.70;7.70;;;22.30;99.90;;;;;;5031447;28;20465;-80
2021/07/23 00:52:34;;;;;;;7.90;6.90;;;22.30;99.90;;;;;;5038800;28;20472;-81
2021/07/23 00:55:03;;;;;;;10.47;7.60;;;22.20;99.90;;;;;;5029163;28;20457;-80
2021/07/23 00:57:32;;;;;;;10.60;8.00;;;22.20;99.90;;;;;;5010063;28;20978;-80
2021/07/23 01:00:02;;;;;;;10.03;6.80;;;22.20;99.90;;;;;;5031491;28;20471;-80
2021/07/23 01:02:32;;;;;;;9.53;7.87;;;22.20;99.90;;;;;;5031002;28;20472;-81
2021/07/23 01:05:00;;;;;;;10.20;8.87;;;22.20;99.90;;;;;;5037870;28;20457;-79
2021/07/23 01:07:29;;;;;;;8.37;6.57;;;22.20;99.90;;;;;;5045612;28;20801;-80
2021/07/23 01:10:00;;;;;;;9.47;7.33;;;22.10;99.90;;;;;;5032385;28;20604;-79
2021/07/23 01:12:29;;;;;;;10.57;7.80;;;22.10;99.90;;;;;;5029685;28;20486;-80
2021/07/23 01:14:58;;;;;;;10.83;7.70;;;22.10;99.90;;;;;;5033438;28;20462;-80
2021/07/23 01:17:26;;;;;;;9.67;7.10;;;22.00;99.90;;;;;;5014719;28;20505;-80
2021/07/23 01:20:02;;;;;;;9.43;6.93;;;22.00;99.90;;;;;;5017385;28;20457;-82
2021/07/23 01:22:32;;;;;;;9.90;8.10;;;22.00;99.90;;;;;;5032694;28;20479;-81
2021/07/23 01:25:02;;;;;;;7.13;6.40;;;22.00;99.90;;;;;;5034714;28;20453;-81
2021/07/23 01:27:35;;;;;;;8.90;7.13;;;22.00;99.90;;;;;;5034140;28;20461;-83
2021/07/23 01:30:07;;;;;;;9.40;6.50;;;22.00;99.90;;;;;;5016816;28;20458;-80
2021/07/23 01:32:35;;;;;;;10.47;7.30;;;22.00;99.90;;;;;;5028068;28;20516;-81
2021/07/23 01:35:04;;;;;;;7.57;6.77;;;22.00;99.90;;;;;;5025338;28;20510;-80
2021/07/23 01:37:33;;;;;;;12.47;8.30;;;22.00;99.90;;;;;;5033706;28;20541;-80
2021/07/23 01:40:02;;;;;;;8.10;7.30;;;21.90;99.90;;;;;;5033522;28;20861;-81
2021/07/23 01:42:31;;;;;;;9.30;6.53;;;21.90;99.90;;;;;;5033816;28;20471;-80
2021/07/23 01:44:59;;;;;;;8.50;7.07;;;21.90;99.90;;;;;;5033450;28;20466;-82
2021/07/23 01:47:28;;;;;;;9.57;7.43;;;21.90;99.90;;;;;;5016060;28;20974;-80
2021/07/23 01:49:56;;;;;;;8.43;6.17;;;21.90;99.90;;;;;;5034448;28;20452;-82
2021/07/23 01:52:24;;;;;;;9.30;7.03;;;21.80;99.90;;;;;;5035479;28;20482;-83
2021/07/23 01:54:52;;;;;;;12.30;8.20;;;21.90;99.90;;;;;;5034977;28;20532;-82
2021/07/23 01:57:21;;;;;;;11.80;7.50;;;21.90;99.90;;;;;;5029522;28;20868;-83
2021/07/23 01:59:49;;;;;;;9.97;7.50;;;21.80;99.90;;;;;;5016826;28;20451;-81
2021/07/23 02:02:17;;;;;;;7.40;6.60;;;21.80;99.90;;;;;;5031024;28;20495;-82
2021/07/23 02:04:46;;;;;;;11.73;8.20;;;21.80;99.90;;;;;;5018672;28;20484;-82
2021/07/23 02:07:14;;;;;;;11.90;7.53;;;21.80;99.90;;;;;;5034445;28;20456;-83
2021/07/23 02:09:42;;;;;;;8.73;6.93;;;21.70;99.90;;;;;;5020318;28;20514;-80
2021/07/23 02:12:11;;;;;;;9.70;7.43;;;21.70;99.90;;;;;;5032830;28;20541;-81
2021/07/23 02:14:40;;;;;;;10.53;8.20;;;21.70;99.90;;;;;;5032513;28;20819;-81
2021/07/23 02:17:08;;;;;;;10.00;7.97;;;21.70;99.90;;;;;;5029940;28;20464;-82
2021/07/23 02:19:36;;;;;;;10.03;6.77;;;21.70;99.90;;;;;;5032380;28;20452;-83
2021/07/23 02:22:06;;;;;;;9.43;7.80;;;21.70;99.90;;;;;;5032870;28;20472;-80
2021/07/23 02:24:34;;;;;;;9.43;8.40;;;21.60;99.90;;;;;;5031925;28;20452;-84
2021/07/23 02:27:02;;;;;;;8.67;6.30;;;21.60;99.90;;;;;;5030555;28;20498;-82
2021/07/23 02:29:30;;;;;;;8.27;6.50;;;21.60;99.90;;;;;;5034247;28;20479;-85
2021/07/23 02:31:59;;;;;;;9.53;7.07;;;21.60;99.90;;;;;;5025851;28;20476;-82
2021/07/23 02:34:29;;;;;;;8.80;6.97;;;21.60;99.90;;;;;;5011131;28;20976;-82
2021/07/23 02:36:58;;;;;;;8.60;6.70;;;21.50;99.90;;;;;;5034030;28;20945;-82
2021/07/23 02:39:26;;;;;;;13.00;7.93;;;21.50;99.90;;;;;;5019964;28;20457;-81
2021/07/23 02:41:54;;;;;;;11.77;7.80;;;21.50;99.90;;;;;;5036495;28;20511;-81
2021/07/23 02:44:22;;;;;;;9.13;6.03;;;21.50;99.90;;;;;;5035966;28;20455;-82
2021/07/23 02:46:50;;;;;;;10.43;7.33;;;21.50;99.90;;;;;;5033616;28;20460;-80
2021/07/23 02:49:19;;;;;;;8.90;6.60;;;21.40;99.90;;;;;;5034643;28;20535;-82
2021/07/23 02:51:48;;;;;;;9.10;7.60;;;21.50;99.90;;;;;;5034412;28;20508;-80
2021/07/23 02:54:16;;;;;;;9.63;7.07;;;21.40;99.90;;;;;;5034417;28;20463;-79
2021/07/23 02:56:44;;;;;;;9.47;7.20;;;21.40;99.90;;;;;;5033819;28;20444;-79
2021/07/23 02:59:12;;;;;;;9.27;7.43;;;21.40;99.90;;;;;;5033389;28;20448;-79
2021/07/23 03:01:40;;;;;;;10.07;7.47;;;21.40;99.90;;;;;;5013086;28;20472;-79
2021/07/23 03:04:09;;;;;;;9.27;7.77;;;21.30;99.90;;;;;;5036317;28;20892;-80
2021/07/23 03:06:38;;;;;;;8.77;6.07;;;21.30;99.90;;;;;;5035284;28;20437;-80
2021/07/23 03:09:06;;;;;;;9.63;7.13;;;21.30;99.90;;;;;;5031774;28;20535;-79
2021/07/23 03:11:34;;;;;;;11.90;7.50;;;21.20;99.90;;;;;;5014624;28;20488;-79
2021/07/23 03:14:02;;;;;;;10.00;8.00;;;21.20;99.90;;;;;;5025807;28;20476;-80
2021/07/23 03:16:31;;;;;;;7.07;5.93;;;21.20;99.90;;;;;;5020657;28;20462;-79
2021/07/23 03:18:59;;;;;;;10.20;7.20;;;21.20;99.90;;;;;;5029548;28;20464;-79
2021/07/23 03:21:27;;;;;;;8.73;7.00;;;21.20;99.90;;;;;;5031605;28;20530;-78
2021/07/23 03:23:56;;;;;;;7.67;6.63;;;21.10;99.90;;;;;;5023089;28;20472;-79
2021/07/23 03:26:24;;;;;;;10.20;6.90;;;21.10;99.90;;;;;;5029801;28;20502;-78
2021/07/23 03:28:52;;;;;;;8.93;6.87;;;21.10;99.90;;;;;;5014424;28;20464;-80
2021/07/23 03:31:20;;;;;;;8.67;7.10;;;21.10;99.90;;;;;;5033042;28;20491;-80
2021/07/23 03:33:49;;;;;;;9.43;6.93;;;21.00;99.90;;;;;;5017791;28;20507;-78
2021/07/23 03:36:17;;;;;;;11.40;7.10;;;20.90;99.90;;;;;;5032858;28;20441;-79
2021/07/23 03:38:45;;;;;;;9.13;7.07;;;21.00;99.90;;;;;;5032219;28;20461;-80
2021/07/23 03:41:14;;;;;;;9.13;7.40;;;20.90;99.90;;;;;;5019280;28;20538;-80
2021/07/23 03:43:42;;;;;;;9.67;7.07;;;20.90;99.90;;;;;;5030823;28;20530;-78
2021/07/23 03:46:10;;;;;;;8.57;6.77;;;20.90;99.90;;;;;;5026007;28;20538;-79
2021/07/23 03:48:39;;;;;;;10.47;7.17;;;20.80;99.90;;;;;;5033128;28;20475;-79
2021/07/23 03:51:07;;;;;;;10.17;6.97;;;20.80;99.90;;;;;;5029873;28;20452;-80
2021/07/23 03:53:35;;;;;;;12.43;6.70;;;20.80;99.90;;;;;;5031516;28;20516;-79
2021/07/23 03:56:06;;;;;;;11.00;8.10;;;20.80;99.90;;;;;;5029375;28;20461;-79
2021/07/23 03:58:39;;;;;;;9.87;7.47;;;20.80;99.90;;;;;;5030968;28;20451;-79
2021/07/23 04:01:07;;;;;;;9.80;8.50;;;20.80;99.90;;;;;;5021762;28;20456;-80
2021/07/23 04:03:36;;;;;;;10.03;7.67;;;20.90;99.90;;;;;;5031856;28;20445;-78
2021/07/23 04:06:06;;;;;;;10.17;7.37;;;20.90;99.90;;;;;;5039689;28;20870;-80
2021/07/23 04:08:34;;;;;;;11.20;7.00;;;20.90;99.90;;;;;;5039100;28;20455;-80
2021/07/23 04:11:02;;;;;;;6.90;6.20;;;20.80;99.90;;;;;;5034717;28;20499;-80
2021/07/23 04:13:30;;;;;;;9.60;7.07;;;20.80;99.90;;;;;;5017382;28;21018;-79
2021/07/23 04:16:01;;;;;;;10.60;7.53;;;20.80;99.90;;;;;;5031951;28;20506;-78
2021/07/23 04:18:29;;;;;;;12.87;7.37;;;20.70;99.90;;;;;;5029010;28;20959;-81
2021/07/23 04:20:57;;;;;;;10.77;8.07;;;20.70;99.90;;;;;;5031649;28;20506;-80
2021/07/23 04:23:25;;;;;;;11.57;8.30;;;20.70;99.90;;;;;;4995250;28;20449;-81
2021/07/23 04:25:53;;;;;;;9.13;6.80;;;20.70;99.90;;;;;;5030432;28;20499;-80
2021/07/23 04:28:22;;;;;;;11.80;7.83;;;20.70;99.90;;;;;;5032238;28;20451;-80
2021/07/23 04:30:50;;;;;;;8.80;7.60;;;20.60;99.90;;;;;;5031007;28;20634;-80
2021/07/23 04:33:19;;;;;;;10.03;7.10;;;20.60;99.90;;;;;;5026652;28;20548;-79
2021/07/23 04:36:01;;;;;;;11.60;7.03;;;20.60;99.90;;;;;;5029999;28;20543;-81
2021/07/23 04:38:29;;;;;;;12.03;8.00;;;20.60;99.90;;;;;;5030628;28;21634;-78
2021/07/23 04:40:58;;;;;;;11.30;7.47;;;20.60;99.90;;;;;;5029005;28;20451;-80
2021/07/23 04:43:26;;;;;;;9.20;6.60;;;20.60;99.90;;;;;;5015309;28;20453;-80
2021/07/23 04:45:54;;;;;;;8.37;6.40;;;20.60;99.90;;;;;;5029275;28;21154;-81
2021/07/23 04:48:23;;;;;;;8.00;6.50;;;20.60;99.90;;;;;;5028230;28;20510;-78
2021/07/23 04:50:51;;;;;;;12.07;7.83;;;20.60;99.90;;;;;;5029023;28;20452;-79
2021/07/23 04:53:19;;;;;;;9.10;7.83;;;20.60;99.90;;;;;;5026452;28;20544;-79
2021/07/23 04:55:52;;;;;;;9.93;7.47;;;20.60;99.90;;;;;;5029180;28;20939;-82
2021/07/23 04:58:20;;;;;;;10.37;8.10;;;20.60;99.90;;;;;;5029214;28;20462;-83
2021/07/23 05:00:50;;;;;;;11.10;8.27;;;20.60;99.90;;;;;;5035522;28;20471;-80
2021/07/23 05:03:18;;;;;;;9.87;6.93;;;20.60;99.90;;;;;;5041510;28;20451;-79
2021/07/23 05:05:49;;;;;;;9.60;7.67;;;20.70;99.90;;;;;;5025774;28;20830;-76
2021/07/23 05:08:17;;;;;;;19.40;7.90;;;20.60;99.90;;;;;;5040384;28;21013;-75
2021/07/23 05:10:45;;;;;;;7.00;6.30;;;20.50;99.90;;;;;;5032338;28;20451;-77
2021/07/23 05:13:14;;;;;;;8.73;7.20;;;20.40;99.90;;;;;;5029775;28;20495;-77
2021/07/23 05:15:42;;;;;;;9.00;6.90;;;20.40;99.90;;;;;;5034347;28;20482;-75
2021/07/23 05:18:10;;;;;;;8.00;6.70;;;20.50;99.90;;;;;;5017755;28;20548;-76
2021/07/23 05:20:38;;;;;;;9.60;7.50;;;20.50;99.90;;;;;;5027862;28;20530;-77
2021/07/23 05:23:08;;;;;;;8.80;6.73;;;20.50;99.90;;;;;;5015040;28;20473;-77
2021/07/23 05:25:37;;;;;;;11.23;7.60;;;20.50;99.90;;;;;;5032251;28;20459;-73
2021/07/23 05:28:06;;;;;;;9.90;6.70;;;20.50;99.90;;;;;;5037909;28;20495;-77
2021/07/23 05:30:34;;;;;;;16.17;7.70;;;20.50;99.90;;;;;;5030847;28;20488;-77
2021/07/23 05:33:02;;;;;;;10.90;8.33;;;20.50;99.90;;;;;;5039176;28;20515;-75
2021/07/23 05:35:30;;;;;;;8.30;7.03;;;20.50;99.90;;;;;;5034949;28;20463;-76
2021/07/23 05:37:58;;;;;;;10.47;8.13;;;20.50;99.90;;;;;;5029557;28;20485;-81
2021/07/23 05:40:27;;;;;;;11.53;8.33;;;20.60;99.90;;;;;;5029890;28;20895;-81
2021/07/23 05:42:56;;;;;;;9.73;7.40;;;20.70;99.90;;;;;;5035193;28;20479;-79
2021/07/23 05:45:24;;;;;;;9.77;7.73;;;20.80;99.90;;;;;;5027927;28;20449;-80
2021/07/23 05:47:52;;;;;;;8.43;6.83;;;20.80;99.90;;;;;;5019307;28;20456;-81
2021/07/23 05:50:20;;;;;;;12.80;8.73;;;20.90;99.90;;;;;;5028062;28;20453;-80
2021/07/23 05:52:48;;;;;;;10.73;7.50;;;21.00;99.90;;;;;;5036607;28;20468;-80
2021/07/23 05:55:16;;;;;;;9.63;7.30;;;21.10;99.90;;;;;;5041674;28;20517;-82
2021/07/23 05:57:46;;;;;;;10.77;7.90;;;21.10;99.90;;;;;;5011968;28;20518;-81
2021/07/23 06:00:14;;;;;;;14.70;8.53;;;21.10;99.90;;;;;;5032336;28;20494;-80
2021/07/23 06:02:43;;;;;;;17.43;8.07;;;21.10;99.90;;;;;;5029781;28;20674;-79
2021/07/23 06:05:12;;;;;;;11.90;8.43;;;21.20;99.90;;;;;;5030690;28;20491;-79
2021/07/23 06:07:40;;;;;;;13.50;7.70;;;21.30;99.90;;;;;;5044710;28;20496;-79
2021/07/23 06:10:09;;;;;;;10.30;7.40;;;21.30;99.90;;;;;;5034428;28;20507;-80
2021/07/23 06:12:37;;;;;;;9.77;6.80;;;21.30;99.90;;;;;;5034579;28;20514;-79
2021/07/23 06:15:08;;;;;;;10.40;7.20;;;21.40;99.90;;;;;;5035802;28;20536;-80
2021/07/23 06:17:36;;;;;;;10.47;7.10;;;21.40;99.90;;;;;;5034648;28;20456;-80
2021/07/23 06:20:05;;;;;;;10.20;7.33;;;21.50;99.90;;;;;;5031636;28;20456;-80
2021/07/23 06:22:33;;;;;;;7.93;6.93;;;21.50;99.90;;;;;;5029047;28;20985;-80
2021/07/23 06:25:02;;;;;;;7.33;6.60;;;21.50;99.90;;;;;;5035940;28;21040;-80
2021/07/23 06:27:30;;;;;;;10.30;7.97;;;21.60;99.90;;;;;;5033322;28;20477;-81
2021/07/23 06:29:58;;;;;;;11.80;8.00;;;21.70;99.90;;;;;;5027198;28;20825;-81
2021/07/23 06:32:28;;;;;;;15.80;8.17;;;21.70;99.90;;;;;;5036858;28;20529;-80
2021/07/23 06:34:57;;;;;;;11.00;8.03;;;21.80;99.90;;;;;;5037747;28;21005;-80
2021/07/23 06:37:25;;;;;;;11.60;7.50;;;21.80;99.90;;;;;;5011202;28;20464;-80
2021/07/23 06:39:53;;;;;;;11.27;8.87;;;22.00;99.90;;;;;;5017926;28;20455;-80
2021/07/23 06:42:23;;;;;;;11.03;7.67;;;22.00;99.90;;;;;;5034092;28;20478;-80
2021/07/23 06:44:52;;;;;;;8.40;6.93;;;22.10;99.90;;;;;;5031153;28;20977;-80
2021/07/23 06:47:20;;;;;;;11.73;7.90;;;22.10;99.90;;;;;;5034830;28;20458;-80
2021/07/23 06:49:51;;;;;;;10.00;7.63;;;22.10;99.90;;;;;;5033687;28;20495;-80
2021/07/23 06:52:19;;;;;;;9.50;7.77;;;22.20;99.90;;;;;;5009419;28;20486;-81
2021/07/23 06:54:51;;;;;;;9.60;7.47;;;22.30;99.90;;;;;;5014861;28;20565;-80
2021/07/23 06:57:19;;;;;;;9.47;7.33;;;22.40;99.90;;;;;;5029273;28;20517;-79
2021/07/23 06:59:49;;;;;;;11.30;9.93;;;22.60;99.90;;;;;;5030810;28;20467;-80
2021/07/23 07:02:17;;;;;;;10.17;7.70;;;22.70;99.90;;;;;;5026670;28;20502;-80
2021/07/23 07:04:47;;;;;;;16.53;8.90;;;22.80;99.90;;;;;;5030841;28;20450;-80
2021/07/23 07:07:17;;;;;;;11.70;7.33;;;23.00;99.90;;;;;;5036162;28;20463;-79
2021/07/23 07:09:45;;;;;;;9.57;8.23;;;23.10;99.90;;;;;;5010928;28;20475;-78
2021/07/23 07:12:14;;;;;;;9.57;8.57;;;23.30;99.90;;;;;;5025978;28;20514;-80
2021/07/23 07:14:42;;;;;;;11.13;7.43;;;23.30;99.90;;;;;;5029216;28;20471;-79
2021/07/23 07:17:11;;;;;;;10.63;8.60;;;23.50;99.90;;;;;;5029031;28;20449;-80
2021/07/23 07:19:39;;;;;;;12.17;7.50;;;23.60;99.90;;;;;;5031775;28;20463;-79
2021/07/23 07:22:07;;;;;;;11.33;7.43;;;23.70;99.90;;;;;;5018009;28;20894;-80
2021/07/23 07:24:37;;;;;;;9.73;7.73;;;24.00;99.90;;;;;;5035687;28;20798;-79
2021/07/23 07:27:05;;;;;;;13.57;8.33;;;24.00;99.90;;;;;;5042083;28;20472;-80
2021/07/23 07:29:35;;;;;;;9.43;8.00;;;24.10;99.90;;;;;;5036152;28;20460;-79
2021/07/23 07:32:04;;;;;;;10.70;8.33;;;24.10;99.90;;;;;;5032984;28;20480;-79
2021/07/23 07:34:34;;;;;;;15.73;8.70;;;24.20;99.90;;;;;;5033332;28;21050;-80
2021/07/23 07:37:03;;;;;;;9.73;8.00;;;24.20;99.90;;;;;;5017083;28;20448;-79
2021/07/23 07:39:31;;;;;;;10.27;7.30;;;24.10;99.90;;;;;;5042834;28;20994;-80
2021/07/23 07:42:02;;;;;;;9.40;8.23;;;24.20;99.90;;;;;;5035301;28;20476;-80
2021/07/23 07:44:30;;;;;;;8.83;7.03;;;24.20;99.90;;;;;;5038941;28;20892;-80
2021/07/23 07:46:58;;;;;;;8.97;7.70;;;24.20;99.90;;;;;;5015922;28;20455;-83
2021/07/23 07:49:27;;;;;;;44.50;22.57;;;24.20;99.90;;;;;;5036352;28;20507;-80
2021/07/23 07:51:55;;;;;;;29.13;17.90;;;24.20;99.90;;;;;;5014834;28;20551;-80
2021/07/23 07:54:23;;;;;;;15.10;9.90;;;24.30;99.90;;;;;;5035652;28;20531;-79
2021/07/23 07:56:52;;;;;;;8.83;7.90;;;24.30;99.90;;;;;;5045458;28;20458;-80
2021/07/23 07:59:21;;;;;;;9.53;6.57;;;24.40;99.90;;;;;;5032410;28;20441;-80
2021/07/23 08:01:50;;;;;;;8.73;6.93;;;24.40;99.90;;;;;;5028298;28;20479;-79
2021/07/23 08:04:18;;;;;;;8.40;7.07;;;24.40;99.90;;;;;;5030236;28;21118;-79
2021/07/23 08:06:48;;;;;;;9.10;7.83;;;24.50;99.90;;;;;;5018356;28;20449;-79
2021/07/23 08:09:16;;;;;;;10.33;7.60;;;24.50;99.90;;;;;;5011226;28;20523;-79
2021/07/23 08:11:44;;;;;;;9.50;7.63;;;24.60;99.90;;;;;;5030216;28;20550;-80
2021/07/23 08:14:12;;;;;;;7.40;6.60;;;24.60;99.90;;;;;;5000792;28;20495;-80
2021/07/23 08:16:42;;;;;;;7.37;6.63;;;24.60;99.90;;;;;;5027716;28;20483;-79
2021/07/23 08:19:10;;;;;;;7.80;6.70;;;24.70;99.90;;;;;;5025377;28;20467;-81
2021/07/23 08:21:38;;;;;;;8.73;7.00;;;24.70;99.90;;;;;;5028697;28;20461;-80
2021/07/23 08:24:06;;;;;;;7.23;6.50;;;24.70;99.90;;;;;;5013254;28;20547;-81
2021/07/23 08:26:35;;;;;;;7.97;7.17;;;24.70;99.90;;;;;;5036999;28;20616;-79
2021/07/23 08:29:03;;;;;;;8.00;7.20;;;24.80;99.90;;;;;;5016889;28;20502;-80
2021/07/23 08:31:31;;;;;;;8.53;7.50;;;24.80;99.90;;;;;;5031380;28;20538;-79
2021/07/23 08:34:01;;;;;;;7.57;6.77;;;24.80;99.90;;;;;;5034107;28;20528;-80
2021/07/23 08:36:29;;;;;;;11.83;7.53;;;24.90;99.90;;;;;;5027598;28;20488;-80
2021/07/23 08:38:59;;;;;;;7.63;6.83;;;24.80;99.90;;;;;;5034272;28;20457;-80
2021/07/23 08:41:27;;;;;;;9.53;7.90;;;24.90;99.90;;;;;;5030449;28;20484;-79
2021/07/23 08:43:55;;;;;;;8.50;6.90;;;24.90;99.90;;;;;;5030997;28;20445;-79
2021/07/23 08:46:23;;;;;;;8.93;6.80;;;25.00;99.90;;;;;;5028319;28;20459;-80
2021/07/23 08:48:51;;;;;;;8.27;6.43;;;25.00;99.90;;;;;;5028418;28;20510;-78
2021/07/23 08:51:22;;;;;;;7.07;5.97;;;25.00;99.90;;;;;;5028275;28;20473;-80
2021/07/23 08:53:50;;;;;;;8.27;7.27;;;25.10;99.90;;;;;;5033579;28;20453;-80
2021/07/23 08:56:18;;;;;;;7.97;7.20;;;25.20;99.90;;;;;;5032344;28;20491;-81
2021/07/23 08:58:46;;;;;;;8.27;6.83;;;25.20;99.90;;;;;;5031775;28;20460;-79
2021/07/23 09:01:14;;;;;;;12.27;6.63;;;25.20;99.90;;;;;;5015760;28;20517;-81
2021/07/23 09:03:42;;;;;;;8.80;7.60;;;25.30;99.90;;;;;;5038513;28;20460;-81
2021/07/23 09:06:16;;;;;;;8.13;7.20;;;25.30;99.90;;;;;;5017144;28;20895;-81
2021/07/23 09:08:50;;;;;;;8.20;7.40;;;25.30;99.90;;;;;;5032667;28;20440;-80
2021/07/23 09:11:27;;;;;;;10.03;7.33;;;25.30;99.90;;;;;;5014113;28;21098;-79
2021/07/23 09:14:11;;;;;;;8.13;7.20;;;25.40;99.90;;;;;;5029883;28;20460;-80
2021/07/23 09:16:39;;;;;;;8.87;6.77;;;25.40;99.90;;;;;;5032900;28;20496;-81
2021/07/23 09:19:08;;;;;;;9.60;8.17;;;25.30;99.90;;;;;;5036342;28;20978;-80
2021/07/23 09:21:38;;;;;;;8.63;7.73;;;25.30;99.90;;;;;;5034053;28;20477;-80
2021/07/23 09:24:09;;;;;;;8.93;8.00;;;25.40;99.90;;;;;;5030257;28;20637;-81
2021/07/23 09:26:42;;;;;;;9.90;7.47;;;25.50;99.90;;;;;;5026133;28;20469;-81
2021/07/23 09:29:10;;;;;;;8.27;7.30;;;25.50;99.90;;;;;;5034944;28;20526;-80
2021/07/23 09:31:38;;;;;;;8.90;7.70;;;25.50;99.90;;;;;;5029470;28;20820;-81
2021/07/23 09:34:31;;;;;;;8.67;6.90;;;25.40;99.90;;;;;;5027963;28;20452;-82
2021/07/23 09:37:10;;;;;;;8.83;8.03;;;25.40;99.90;;;;;;5029998;28;20591;-83
2021/07/23 09:39:58;;;;;;;9.50;7.40;;;25.40;99.90;;;;;;5037375;28;20486;-81
2021/07/23 09:42:26;;;;;;;8.87;8.07;;;25.40;99.90;;;;;;5031399;28;20991;-81
2021/07/23 09:45:02;;;;;;;8.33;7.53;;;25.40;99.90;;;;;;5031913;28;20453;-80
2021/07/23 09:47:30;;;;;;;10.20;7.60;;;25.50;99.90;;;;;;5011465;28;20489;-81
2021/07/23 09:50:01;;;;;;;12.90;7.20;;;25.60;99.90;;;;;;5034861;28;21289;-81
2021/07/23 09:52:30;;;;;;;7.63;6.90;;;25.60;99.90;;;;;;5008749;28;20484;-81
2021/07/23 09:55:00;;;;;;;7.53;6.80;;;25.70;99.90;;;;;;5027683;28;20456;-80
2021/07/23 09:57:31;;;;;;;7.20;6.57;;;25.70;99.90;;;;;;5032655;28;20455;-81
2021/07/23 10:00:05;;;;;;;7.63;6.80;;;25.80;99.90;;;;;;5035485;28;20889;-82
2021/07/23 10:02:42;;;;;;;10.97;6.83;;;25.90;99.90;;;;;;5034134;28;20994;-81
2021/07/23 10:05:14;;;;;;;8.90;7.23;;;26.00;99.90;;;;;;5018984;28;20460;-82
2021/07/23 10:07:46;;;;;;;8.30;6.70;;;26.00;99.90;;;;;;5033269;28;20451;-82
2021/07/23 10:10:18;;;;;;;6.90;6.20;;;26.10;99.90;;;;;;5005226;28;20484;-82
2021/07/23 10:12:49;;;;;;;7.50;6.50;;;26.20;99.90;;;;;;5014531;28;20494;-81
2021/07/23 10:15:19;;;;;;;7.67;6.90;;;26.20;99.90;;;;;;5028269;28;20490;-82
2021/07/23 10:17:48;;;;;;;7.93;7.13;;;26.20;99.90;;;;;;5027678;28;20531;-81
2021/07/23 10:20:19;;;;;;;9.77;7.30;;;26.30;99.90;;;;;;5027162;28;20530;-81
2021/07/23 10:22:51;;;;;;;7.90;7.13;;;26.40;99.90;;;;;;5016996;28;20983;-83
2021/07/23 10:25:23;;;;;;;11.47;7.83;;;26.40;99.90;;;;;;5010259;28;20834;-80
2021/07/23 10:27:52;;;;;;;8.93;7.93;;;26.40;99.90;;;;;;5020749;28;20453;-80
2021/07/23 10:30:31;;;;;;;9.30;7.20;;;26.40;99.90;;;;;;5026935;28;20449;-81
2021/07/23 10:32:59;;;;;;;7.33;6.63;;;26.40;99.90;;;;;;5029151;28;20616;-82
2021/07/23 10:35:35;;;;;;;8.70;6.87;;;26.30;99.90;;;;;;5030134;28;20524;-82
2021/07/23 10:38:05;;;;;;;7.97;6.27;;;26.30;99.90;;;;;;5008863;28;21119;-81
2021/07/23 10:40:37;;;;;;;8.03;7.33;;;26.30;99.90;;;;;;5028837;28;20526;-82
2021/07/23 10:43:33;;;;;;;8.33;7.43;;;26.40;99.90;;;;;;5012901;28;20515;-82
2021/07/23 10:46:02;;;;;;;8.03;7.07;;;26.40;99.90;;;;;;5014706;28;20448;-82
2021/07/23 10:48:47;;;;;;;7.27;6.63;;;26.50;99.90;;;;;;5041982;28;20529;-84
2021/07/23 10:51:47;;;;;;;8.93;6.80;;;26.40;99.90;;;;;;5036880;28;20475;-84
2021/07/23 10:54:16;;;;;;;7.93;6.97;;;26.40;99.90;;;;;;5015578;28;20457;-83
2021/07/23 10:57:14;;;;;;;9.47;7.80;;;26.40;99.90;;;;;;5029874;28;20468;-83
2021/07/23 10:59:49;;;;;;;7.50;6.90;;;26.50;99.90;;;;;;5024989;28;20483;-83
2021/07/23 11:02:43;;;;;;;9.40;7.70;;;26.50;99.90;;;;;;5019122;28;20488;-83
2021/07/23 11:05:17;;;;;;;10.60;7.43;;;26.60;99.90;;;;;;5032162;28;20462;-82
2021/07/23 11:07:46;;;;;;;9.50;7.03;;;26.60;99.90;;;;;;5039802;28;20543;-83
2021/07/23 11:10:21;;;;;;;6.70;6.10;;;26.60;99.90;;;;;;5030351;28;20808;-83
2021/07/23 11:12:51;;;;;;;8.50;7.10;;;26.60;99.90;;;;;;5028343;28;20483;-82
2021/07/23 11:15:19;;;;;;;9.63;7.53;;;26.60;99.90;;;;;;5027815;28;20476;-83
2021/07/23 11:17:58;;;;;;;7.73;6.90;;;26.70;99.90;;;;;;5015511;28;20476;-82
2021/07/23 11:20:33;;;;;;;8.83;6.73;;;26.70;99.90;;;;;;5032680;28;20526;-82
2021/07/23 11:23:02;;;;;;;7.87;6.90;;;26.80;99.90;;;;;;5029014;28;20526;-84
2021/07/23 11:25:31;;;;;;;6.83;5.80;;;26.80;99.90;;;;;;5038979;28;20511;-83
2021/07/23 11:28:06;;;;;;;8.90;7.53;;;26.80;99.90;;;;;;5011468;28;20519;-82
2021/07/23 11:30:36;;;;;;;10.57;6.80;;;26.80;99.90;;;;;;5030187;28;20522;-82
2021/07/23 11:33:06;;;;;;;8.13;7.30;;;26.80;99.90;;;;;;5012344;28;20879;-81
2021/07/23 11:35:41;;;;;;;8.13;7.33;;;26.90;99.90;;;;;;5026098;28;20530;-80
2021/07/23 11:38:14;;;;;;;7.57;6.67;;;27.00;99.90;;;;;;5032193;28;20479;-82
2021/07/23 11:40:42;;;;;;;8.90;6.97;;;27.00;99.90;;;;;;5037060;28;20467;-83
2021/07/23 11:43:22;;;;;;;9.20;6.60;;;26.90;99.90;;;;;;5015992;28;20476;-83
2021/07/23 11:45:51;;;;;;;7.77;7.00;;;26.90;99.90;;;;;;5027446;28;20494;-82
2021/07/23 11:48:20;;;;;;;11.43;7.23;;;26.90;99.90;;;;;;5036981;28;20452;-83
2021/07/23 11:50:53;;;;;;;11.10;8.23;;;26.90;99.90;;;;;;5034179;28;20463;-82
2021/07/23 11:53:22;;;;;;;7.80;6.90;;;26.90;99.90;;;;;;5028847;28;20452;-82
2021/07/23 11:55:51;;;;;;;7.20;6.40;;;27.00;99.90;;;;;;5007157;28;20884;-82
2021/07/23 11:58:25;;;;;;;11.77;6.90;;;27.00;99.90;;;;;;5023108;28;20550;-82
2021/07/23 12:00:54;;;;;;;9.17;7.23;;;27.00;99.90;;;;;;5011088;28;21207;-83
2021/07/23 12:03:23;;;;;;;7.40;6.70;;;27.00;99.90;;;;;;5008819;28;20511;-82
2021/07/23 12:05:53;;;;;;;10.17;7.00;;;27.00;99.90;;;;;;5032707;28;20457;-80
2021/07/23 12:08:22;;;;;;;7.13;6.10;;;27.10;99.90;;;;;;5020701;28;20502;-83
2021/07/23 12:10:53;;;;;;;6.67;6.07;;;27.20;99.90;;;;;;5027622;28;20543;-82
2021/07/23 12:13:23;;;;;;;7.07;6.50;;;27.10;99.90;;;;;;5034658;28;21029;-83
2021/07/23 12:15:55;;;;;;;7.87;7.10;;;27.20;99.90;;;;;;5026924;28;20456;-82
2021/07/23 12:18:25;;;;;;;8.20;7.33;;;27.30;99.90;;;;;;5022092;28;20473;-83
2021/07/23 12:21:07;;;;;;;8.00;6.30;;;27.30;99.90;;;;;;5008362;28;20862;-83
2021/07/23 12:23:35;;;;;;;8.40;7.40;;;27.30;99.90;;;;;;5026366;28;20857;-82
2021/07/23 12:26:03;;;;;;;6.63;6.13;;;27.30;99.90;;;;;;5015723;28;20489;-82
2021/07/23 12:28:35;;;;;;;10.00;6.63;;;27.30;99.90;;;;;;5027278;28;20874;-83
2021/07/23 12:31:04;;;;;;;8.93;6.10;;;27.30;99.90;;;;;;5029377;28;20514;-84
2021/07/23 12:33:32;;;;;;;8.93;6.90;;;27.30;99.90;;;;;;5028600;28;20456;-85
2021/07/23 12:36:24;;;;;;;7.37;6.67;;;27.30;99.90;;;;;;5032794;28;20935;-84
2021/07/23 12:39:01;;;;;;;7.37;6.67;;;27.30;99.90;;;;;;5018342;28;20976;-83
2021/07/23 12:41:30;;;;;;;7.27;6.57;;;27.30;99.90;;;;;;5021860;28;20487;-84
2021/07/23 12:44:05;;;;;;;7.63;6.70;;;27.40;99.90;;;;;;5030827;28;20829;-84
2021/07/23 12:46:36;;;;;;;7.20;6.40;;;27.50;99.90;;;;;;5030642;28;20943;-84
2021/07/23 12:49:15;;;;;;;8.30;7.40;;;27.50;99.90;;;;;;5030460;28;20483;-84
2021/07/23 12:51:44;;;;;;;7.80;7.00;;;27.50;99.90;;;;;;5026573;28;20540;-82
2021/07/23 12:54:13;;;;;;;9.50;6.93;;;27.50;99.90;;;;;;5022954;28;20476;-83
2021/07/23 12:56:43;;;;;;;7.03;6.10;;;27.40;99.90;;;;;;5027079;28;20967;-85